Time;durP1;ratioP1;P1;durP2;ratioP2;P2;SDS_P1;SDS_P2;PMS_P1;PMS_P2;Temp;Humidity;BMP_temperature;BMP_pressure;BME280_temperature;BME280_humidity;BME280_pressure;Samples;Min_cycle;Max_cycle;Signal;HPM_P1;HPM_P2
2022/08/21 00:00:30;;;;;;;;;2.00;1.00;;;;;;;;5017755;28;8936;-80
2022/08/21 00:03:03;;;;;;;;;1.00;1.00;;;;;;;;5002728;28;9035;-79
2022/08/21 00:05:31;;;;;;;;;2.00;2.00;;;;;;;;5020289;28;8946;-80
2022/08/21 00:07:59;;;;;;;;;2.00;2.00;;;;;;;;5019596;28;8878;-80
2022/08/21 00:10:26;;;;;;;;;3.00;1.00;;;;;;;;5018140;28;8893;-79
2022/08/21 00:12:55;;;;;;;;;2.00;2.00;;;;;;;;5022251;28;8872;-79
2022/08/21 00:15:26;;;;;;;;;2.00;2.00;;;;;;;;5023358;28;8994;-79
2022/08/21 00:17:58;;;;;;;;;1.00;1.00;;;;;;;;5021767;28;8960;-79
2022/08/21 00:20:27;;;;;;;;;4.67;1.00;;;;;;;;5022980;28;9086;-79
2022/08/21 00:22:54;;;;;;;;;1.00;1.00;;;;;;;;5021726;28;8982;-80
2022/08/21 00:25:22;;;;;;;;;2.67;2.67;;;;;;;;5019433;28;8967;-79
2022/08/21 00:27:49;;;;;;;;;1.50;1.50;;;;;;;;5022143;28;8951;-79
2022/08/21 00:30:18;;;;;;;;;2.00;2.00;;;;;;;;5021088;28;8881;-79
2022/08/21 00:32:52;;;;;;;;;4.00;2.00;;;;;;;;5025034;28;9044;-79
2022/08/21 00:35:24;;;;;;;;;3.00;2.00;;;;;;;;5003597;28;9048;-79
2022/08/21 00:37:51;;;;;;;;;2.00;2.00;;;;;;;;5024244;28;9048;-79
2022/08/21 00:40:23;;;;;;;;;3.33;1.67;;;;;;;;5023420;28;9052;-79
2022/08/21 00:42:51;;;;;;;;;2.00;2.00;;;;;;;;5023569;28;9059;-77
2022/08/21 00:45:18;;;;;;;;;1.00;1.00;;;;;;;;5022060;28;8954;-78
2022/08/21 00:47:45;;;;;;;;;1.33;1.33;;;;;;;;5021871;28;9125;-78
2022/08/21 00:50:13;;;;;;;;;2.00;2.00;;;;;;;;5005219;28;9018;-77
2022/08/21 00:52:43;;;;;;;;;1.67;1.00;;;;;;;;5022352;28;9048;-78
2022/08/21 00:55:11;;;;;;;;;3.33;1.67;;;;;;;;5004088;28;9137;-79
2022/08/21 00:57:43;;;;;;;;;1.00;1.00;;;;;;;;5005548;28;9011;-78
2022/08/21 01:00:14;;;;;;;;;3.67;2.00;;;;;;;;5021826;28;9083;-78
2022/08/21 01:02:41;;;;;;;;;3.00;2.00;;;;;;;;5003651;28;9115;-77
2022/08/21 01:05:09;;;;;;;;;1.00;1.00;;;;;;;;5022775;28;9151;-77
2022/08/21 01:07:37;;;;;;;;;3.00;3.00;;;;;;;;5022866;28;9021;-78
2022/08/21 01:10:08;;;;;;;;;5.00;3.00;;;;;;;;5018441;28;9228;-78
2022/08/21 01:12:35;;;;;;;;;4.00;2.33;;;;;;;;5022032;28;9429;-79
2022/08/21 01:15:05;;;;;;;;;2.00;2.00;;;;;;;;5021877;28;9381;-79
2022/08/21 01:17:34;;;;;;;;;2.00;2.00;;;;;;;;5006761;28;9214;-79
2022/08/21 01:20:05;;;;;;;;;2.00;2.00;;;;;;;;5003588;28;9305;-79
2022/08/21 01:22:35;;;;;;;;;2.00;2.00;;;;;;;;5021689;28;9203;-79
2022/08/21 01:25:02;;;;;;;;;2.00;2.00;;;;;;;;5022479;28;9279;-79
2022/08/21 01:27:29;;;;;;;;;1.00;1.00;;;;;;;;5004113;28;9276;-79
2022/08/21 01:30:01;;;;;;;;;2.33;2.33;;;;;;;;5022423;28;9260;-79
2022/08/21 01:32:29;;;;;;;;;3.50;3.50;;;;;;;;5002056;28;9378;-80
2022/08/21 01:34:56;;;;;;;;;3.25;3.25;;;;;;;;5020848;28;9513;-80
2022/08/21 01:37:23;;;;;;;;;4.75;4.75;;;;;;;;5020974;28;9654;-79
2022/08/21 01:39:54;;;;;;;;;4.75;4.75;;;;;;;;5022392;28;9902;-78
2022/08/21 01:42:21;;;;;;;;;1.75;1.75;;;;;;;;5022935;28;9723;-77
2022/08/21 01:44:49;;;;;;;;;2.25;2.25;;;;;;;;5005812;28;10296;-78
2022/08/21 01:47:17;;;;;;;;;3.00;1.25;;;;;;;;5022393;28;9527;-77
2022/08/21 01:49:45;;;;;;;;;2.00;2.00;;;;;;;;5023011;28;9603;-77
2022/08/21 01:52:13;;;;;;;;;5.25;4.00;;;;;;;;5021705;28;9579;-77
2022/08/21 01:54:41;;;;;;;;;4.00;2.75;;;;;;;;5021407;28;9755;-77
2022/08/21 01:57:11;;;;;;;;;3.00;3.00;;;;;;;;5022236;28;10456;-77
2022/08/21 01:59:38;;;;;;;;;7.50;5.00;;;;;;;;5022322;28;9512;-78
2022/08/21 02:02:06;;;;;;;;;3.00;3.00;;;;;;;;5021020;28;9522;-77
2022/08/21 02:04:36;;;;;;;;;3.00;3.00;;;;;;;;5022029;28;9521;-77
2022/08/21 02:07:03;;;;;;;;;2.00;2.00;;;;;;;;5020091;28;10411;-78
2022/08/21 02:09:31;;;;;;;;;3.00;3.00;;;;;;;;5021784;28;9488;-78
2022/08/21 02:11:59;;;;;;;;;3.00;3.00;;;;;;;;5020693;28;9597;-77
2022/08/21 02:14:27;;;;;;;;;2.00;2.00;;;;;;;;5021520;28;9507;-77
2022/08/21 02:16:55;;;;;;;;;2.00;2.00;;;;;;;;5007596;28;9437;-77
2022/08/21 02:19:22;;;;;;;;;3.00;3.00;;;;;;;;5022518;28;9606;-79
2022/08/21 02:21:49;;;;;;;;;2.00;2.00;;;;;;;;5022719;28;10195;-79
2022/08/21 02:24:17;;;;;;;;;2.00;2.00;;;;;;;;5021214;28;9433;-78
2022/08/21 02:26:44;;;;;;;;;2.33;2.33;;;;;;;;5021518;28;9424;-78
2022/08/21 02:29:11;;;;;;;;;2.00;2.00;;;;;;;;5018749;28;10070;-78
2022/08/21 02:31:40;;;;;;;;;3.00;3.00;;;;;;;;5003894;28;10096;-78
2022/08/21 02:34:08;;;;;;;;;2.00;2.00;;;;;;;;5021355;28;9452;-78
2022/08/21 02:36:35;;;;;;;;;4.33;1.00;;;;;;;;5002499;28;9188;-79
2022/08/21 02:39:03;;;;;;;;;1.00;1.00;;;;;;;;5022527;28;9251;-79
2022/08/21 02:41:31;;;;;;;;;1.00;1.00;;;;;;;;5003262;28;9288;-78
2022/08/21 02:43:59;;;;;;;;;2.00;2.00;;;;;;;;5021098;28;9337;-78
2022/08/21 02:46:26;;;;;;;;;1.00;1.00;;;;;;;;5019249;28;9290;-78
2022/08/21 02:48:55;;;;;;;;;1.00;1.00;;;;;;;;5020297;28;9366;-78
2022/08/21 02:51:24;;;;;;;;;2.00;2.00;;;;;;;;5020077;28;10602;-78
2022/08/21 02:53:52;;;;;;;;;1.67;1.67;;;;;;;;5021186;28;9503;-79
2022/08/21 02:56:22;;;;;;;;;2.50;2.50;;;;;;;;5020891;28;9401;-78
2022/08/21 02:58:51;;;;;;;;;1.33;1.33;;;;;;;;5003950;28;9502;-78
2022/08/21 03:01:19;;;;;;;;;1.00;1.00;;;;;;;;5019958;28;10196;-78
2022/08/21 03:03:49;;;;;;;;;1.00;1.00;;;;;;;;5017192;28;9405;-78
2022/08/21 03:06:22;;;;;;;;;2.00;2.00;;;;;;;;5021628;28;9430;-77
2022/08/21 03:08:50;;;;;;;;;2.00;1.50;;;;;;;;5002526;28;9499;-78
2022/08/21 03:11:20;;;;;;;;;2.25;2.25;;;;;;;;5020544;28;9510;-77
2022/08/21 03:13:47;;;;;;;;;2.25;1.50;;;;;;;;5021360;28;9662;-78
2022/08/21 03:16:14;;;;;;;;;2.75;2.75;;;;;;;;5001320;28;9725;-80
2022/08/21 03:18:42;;;;;;;;;1.50;1.50;;;;;;;;5020376;28;9611;-79
2022/08/21 03:21:09;;;;;;;;;1.50;1.50;;;;;;;;5019831;28;9635;-79
2022/08/21 03:23:39;;;;;;;;;1.25;1.25;;;;;;;;5020400;28;9469;-79
2022/08/21 03:26:07;;;;;;;;;2.00;2.00;;;;;;;;5020305;28;9655;-79
2022/08/21 03:28:34;;;;;;;;;1.00;1.00;;;;;;;;5006957;28;9654;-79
2022/08/21 03:31:02;;;;;;;;;3.25;2.50;;;;;;;;5021878;28;9522;-78
2022/08/21 03:33:29;;;;;;;;;2.00;2.00;;;;;;;;5017289;28;9526;-80
2022/08/21 03:36:02;;;;;;;;;1.25;1.25;;;;;;;;5019810;28;10251;-78
2022/08/21 03:38:32;;;;;;;;;3.25;1.00;;;;;;;;5018726;28;10130;-78
2022/08/21 03:41:01;;;;;;;;;1.75;1.75;;;;;;;;5018076;28;9606;-77
2022/08/21 03:43:29;;;;;;;;;2.25;1.00;;;;;;;;5018660;28;9705;-78
2022/08/21 03:45:57;;;;;;;;;2.00;2.00;;;;;;;;5020590;28;9751;-78
2022/08/21 03:48:24;;;;;;;;;1.50;1.50;;;;;;;;5008936;28;9633;-76
2022/08/21 03:50:53;;;;;;;;;1.25;1.25;;;;;;;;5025066;28;9566;-77
2022/08/21 03:53:21;;;;;;;;;2.00;2.00;;;;;;;;5024498;28;9768;-77
2022/08/21 03:55:50;;;;;;;;;1.00;1.00;;;;;;;;5023897;28;9536;-78
2022/08/21 03:58:20;;;;;;;;;2.00;2.00;;;;;;;;5008794;28;9682;-77
2022/08/21 04:00:49;;;;;;;;;1.00;1.00;;;;;;;;5019697;28;9622;-77
2022/08/21 04:03:17;;;;;;;;;2.00;2.00;;;;;;;;5021199;28;9754;-77
2022/08/21 04:05:45;;;;;;;;;1.00;1.00;;;;;;;;5023534;28;9741;-79
2022/08/21 04:08:13;;;;;;;;;0.75;0.75;;;;;;;;5021620;28;9833;-78
2022/08/21 04:10:42;;;;;;;;;1.75;1.75;;;;;;;;5023624;28;9707;-79
2022/08/21 04:13:10;;;;;;;;;2.25;2.00;;;;;;;;5023412;28;10550;-79
2022/08/21 04:15:38;;;;;;;;;2.25;1.50;;;;;;;;5024435;28;9991;-79
2022/08/21 04:18:06;;;;;;;;;1.00;1.00;;;;;;;;5021964;28;9878;-79
2022/08/21 04:20:33;;;;;;;;;2.00;2.00;;;;;;;;5025182;28;10664;-78
2022/08/21 04:23:01;;;;;;;;;2.00;2.00;;;;;;;;5004913;28;10017;-78
2022/08/21 04:25:29;;;;;;;;;3.00;2.25;;;;;;;;5021253;28;9881;-78
2022/08/21 04:27:56;;;;;;;;;2.00;2.00;;;;;;;;5024097;28;9862;-79
2022/08/21 04:30:24;;;;;;;;;3.00;3.00;;;;;;;;5022236;28;9951;-79
2022/08/21 04:32:53;;;;;;;;;2.00;2.00;;;;;;;;5021804;28;10049;-78
2022/08/21 04:35:23;;;;;;;;;3.00;3.00;;;;;;;;5022708;28;9975;-79
2022/08/21 04:37:50;;;;;;;;;2.25;2.25;;;;;;;;5024062;28;9952;-79
2022/08/21 04:40:19;;;;;;;;;2.00;2.00;;;;;;;;5021532;28;10003;-78
2022/08/21 04:42:51;;;;;;;;;2.25;2.25;;;;;;;;5021353;28;9749;-78
2022/08/21 04:45:21;;;;;;;;;3.00;3.00;;;;;;;;5023669;28;9949;-78
2022/08/21 04:47:52;;;;;;;;;3.50;2.00;;;;;;;;5022971;28;9968;-78
2022/08/21 04:50:19;;;;;;;;;4.00;2.75;;;;;;;;5023965;28;10538;-79
2022/08/21 04:52:50;;;;;;;;;3.75;3.75;;;;;;;;5022459;28;10035;-78
2022/08/21 04:55:18;;;;;;;;;4.00;4.00;;;;;;;;5022390;28;9942;-77
2022/08/21 04:57:46;;;;;;;;;3.00;3.00;;;;;;;;5021636;28;10046;-77
2022/08/21 05:00:14;;;;;;;;;3.75;2.00;;;;;;;;5022200;28;9921;-78
2022/08/21 05:02:42;;;;;;;;;4.50;2.75;;;;;;;;5021952;28;9911;-78
2022/08/21 05:05:12;;;;;;;;;4.00;2.00;;;;;;;;5020599;28;9916;-78
2022/08/21 05:07:40;;;;;;;;;6.25;2.50;;;;;;;;5021759;28;10802;-78
2022/08/21 05:10:08;;;;;;;;;3.00;3.00;;;;;;;;5018707;28;9803;-77
2022/08/21 05:12:36;;;;;;;;;2.00;2.00;;;;;;;;5024241;28;9750;-78
2022/08/21 05:15:04;;;;;;;;;2.00;2.00;;;;;;;;5022151;28;9710;-80
2022/08/21 05:17:31;;;;;;;;;3.00;3.00;;;;;;;;5021883;28;10421;-79
2022/08/21 05:19:59;;;;;;;;;3.00;2.00;;;;;;;;5023982;28;9720;-80
2022/08/21 05:22:28;;;;;;;;;3.00;2.50;;;;;;;;5002816;28;9728;-84
2022/08/21 05:24:55;;;;;;;;;2.00;2.00;;;;;;;;5017521;28;9646;-79
2022/08/21 05:27:22;;;;;;;;;5.75;3.00;;;;;;;;5003893;28;9502;-79
2022/08/21 05:29:50;;;;;;;;;6.00;3.00;;;;;;;;5023203;28;9519;-77
2022/08/21 05:32:17;;;;;;;;;3.00;3.00;;;;;;;;5017469;28;9451;-79
2022/08/21 05:34:44;;;;;;;;;2.75;2.75;;;;;;;;5000557;28;9494;-78
2022/08/21 05:37:12;;;;;;;;;2.33;2.33;;;;;;;;5025948;28;9422;-76
2022/08/21 05:39:41;;;;;;;;;1.33;1.33;;;;;;;;5020874;28;9497;-77
2022/08/21 05:42:09;;;;;;;;;4.00;2.00;;;;;;;;5027368;28;9433;-76
2022/08/21 05:44:36;;;;;;;;;4.50;4.00;;;;;;;;5021595;28;9586;-76
2022/08/21 05:47:05;;;;;;;;;3.00;3.00;;;;;;;;5024826;28;9702;-75
2022/08/21 05:49:32;;;;;;;;;3.25;3.25;;;;;;;;5022625;28;9728;-74
2022/08/21 05:52:00;;;;;;;;;3.00;3.00;;;;;;;;5021785;28;9818;-75
2022/08/21 05:54:28;;;;;;;;;4.50;3.00;;;;;;;;5021707;28;10487;-75
2022/08/21 05:56:56;;;;;;;;;3.00;3.00;;;;;;;;5023190;28;9477;-76
2022/08/21 05:59:24;;;;;;;;;0.00;0.00;;;;;;;;5022319;28;9512;-76
2022/08/21 06:01:52;;;;;;;;;2.00;2.00;;;;;;;;5019861;28;10053;-75
2022/08/21 06:04:19;;;;;;;;;2.33;2.33;;;;;;;;5022738;28;9586;-75
2022/08/21 06:06:48;;;;;;;;;3.00;3.00;;;;;;;;5021943;28;9354;-75
2022/08/21 06:09:15;;;;;;;;;3.00;3.00;;;;;;;;5022910;28;9483;-76
2022/08/21 06:11:43;;;;;;;;;5.33;4.00;;;;;;;;5022960;28;9330;-76
2022/08/21 06:14:14;;;;;;;;;2.33;2.00;;;;;;;;5017852;28;9550;-75
2022/08/21 06:16:42;;;;;;;;;1.33;1.33;;;;;;;;5023072;28;9363;-78
2022/08/21 06:19:09;;;;;;;;;3.33;3.33;;;;;;;;5022341;28;9259;-75
2022/08/21 06:21:36;;;;;;;;;3.33;3.00;;;;;;;;5021947;28;9342;-73
2022/08/21 06:24:05;;;;;;;;;3.33;3.33;;;;;;;;5020723;28;9306;-75
2022/08/21 06:26:32;;;;;;;;;3.00;3.00;;;;;;;;5020743;28;9220;-75
2022/08/21 06:29:00;;;;;;;;;3.33;3.33;;;;;;;;5021508;28;9209;-74
2022/08/21 06:31:29;;;;;;;;;1.00;1.00;;;;;;;;5020133;28;9215;-81
2022/08/21 06:33:57;;;;;;;;;6.00;5.33;;;;;;;;5021079;28;9102;-75
2022/08/21 06:36:25;;;;;;;;;7.00;6.00;;;;;;;;5021315;28;9055;-76
2022/08/21 06:38:52;;;;;;;;;5.00;5.00;;;;;;;;5022342;28;9210;-77
2022/08/21 06:41:20;;;;;;;;;4.67;4.67;;;;;;;;5017977;28;8871;-74
2022/08/21 06:43:47;;;;;;;;;7.00;5.00;;;;;;;;5020021;28;8984;-77
2022/08/21 06:46:14;;;;;;;;;4.00;4.00;;;;;;;;5021657;28;8966;-74
2022/08/21 06:48:43;;;;;;;;;4.00;4.00;;;;;;;;5021826;28;8898;-74
2022/08/21 06:51:10;;;;;;;;;5.00;5.00;;;;;;;;5022750;28;8931;-77
2022/08/21 06:53:38;;;;;;;;;4.50;3.00;;;;;;;;5020273;28;8865;-72
2022/08/21 06:56:05;;;;;;;;;5.00;3.00;;;;;;;;5019350;28;8885;-76
2022/08/21 06:58:32;;;;;;;;;5.00;3.75;;;;;;;;5019557;28;8958;-74
2022/08/21 07:01:00;;;;;;;;;5.50;3.00;;;;;;;;5022094;28;8829;-75
2022/08/21 07:03:30;;;;;;;;;4.25;3.75;;;;;;;;5019740;28;9508;-76
2022/08/21 07:05:59;;;;;;;;;4.00;4.00;;;;;;;;5017396;28;8869;-75
2022/08/21 07:08:26;;;;;;;;;4.00;4.00;;;;;;;;5022710;28;8906;-75
2022/08/21 07:10:54;;;;;;;;;5.25;5.25;;;;;;;;5020936;28;8896;-76
2022/08/21 07:13:22;;;;;;;;;4.00;4.00;;;;;;;;5020752;28;8861;-76
2022/08/21 07:15:50;;;;;;;;;3.00;3.00;;;;;;;;5019918;28;9714;-75
2022/08/21 07:18:17;;;;;;;;;4.00;4.00;;;;;;;;5020709;28;8853;-75
2022/08/21 07:20:45;;;;;;;;;3.00;3.00;;;;;;;;5022698;28;8903;-75
2022/08/21 07:23:26;;;;;;;;;2.00;2.00;;;;;;;;5018763;28;8860;-75
2022/08/21 07:25:53;;;;;;;;;2.25;2.25;;;;;;;;5021471;28;8899;-75
2022/08/21 07:28:21;;;;;;;;;4.50;2.25;;;;;;;;5019516;28;8882;-75
2022/08/21 07:30:52;;;;;;;;;2.00;2.00;;;;;;;;5021786;28;8821;-74
2022/08/21 07:33:19;;;;;;;;;3.00;2.25;;;;;;;;5018671;28;8885;-75
2022/08/21 07:35:47;;;;;;;;;2.00;2.00;;;;;;;;5021634;28;9012;-75
2022/08/21 07:38:15;;;;;;;;;3.50;2.00;;;;;;;;5020603;28;9638;-74
2022/08/21 07:40:43;;;;;;;;;3.25;2.75;;;;;;;;5021117;28;8877;-74
2022/08/21 07:43:11;;;;;;;;;2.00;0.00;;;;;;;;5020047;28;8860;-72
2022/08/21 07:45:38;;;;;;;;;2.50;2.50;;;;;;;;5017869;28;8975;-73
2022/08/21 07:48:06;;;;;;;;;2.00;2.00;;;;;;;;5020120;28;8880;-72
2022/08/21 07:50:33;;;;;;;;;2.75;0.25;;;;;;;;5020266;28;8896;-73
2022/08/21 07:53:02;;;;;;;;;2.00;2.00;;;;;;;;5019431;28;8864;-73
2022/08/21 07:55:30;;;;;;;;;3.00;2.00;;;;;;;;5015622;28;8864;-73
2022/08/21 07:57:58;;;;;;;;;4.00;2.75;;;;;;;;5021804;28;8917;-74
2022/08/21 08:00:27;;;;;;;;;2.75;2.50;;;;;;;;5003096;28;8843;-74
2022/08/21 08:02:55;;;;;;;;;2.25;2.25;;;;;;;;5017571;28;8975;-73
2022/08/21 08:05:24;;;;;;;;;2.00;2.00;;;;;;;;5020365;28;9000;-72
2022/08/21 08:07:52;;;;;;;;;1.50;1.50;;;;;;;;5016182;28;8868;-75
2022/08/21 08:10:19;;;;;;;;;3.00;1.80;;;;;;;;5021602;28;8880;-74
2022/08/21 08:12:48;;;;;;;;;3.00;3.00;;;;;;;;5019869;28;8891;-72
2022/08/21 08:15:19;;;;;;;;;1.75;1.75;;;;;;;;5020809;28;8894;-71
2022/08/21 08:17:46;;;;;;;;;1.20;1.20;;;;;;;;5020731;28;8912;-72
2022/08/21 08:20:15;;;;;;;;;1.00;1.00;;;;;;;;5021488;28;8873;-72
2022/08/21 08:22:42;;;;;;;;;2.00;2.00;;;;;;;;5021068;28;8860;-72
2022/08/21 08:25:12;;;;;;;;;1.00;1.00;;;;;;;;5019568;28;8867;-73
2022/08/21 08:27:39;;;;;;;;;2.00;2.00;;;;;;;;5022185;28;8876;-73
2022/08/21 08:30:11;;;;;;;;;2.60;2.00;;;;;;;;5019991;28;8883;-74
2022/08/21 08:32:39;;;;;;;;;1.00;1.00;;;;;;;;5021541;28;8937;-76
2022/08/21 08:35:07;;;;;;;;;3.00;1.00;;;;;;;;5022551;28;8908;-74
2022/08/21 08:37:37;;;;;;;;;1.00;1.00;;;;;;;;5024524;28;8888;-74
2022/08/21 08:40:06;;;;;;;;;1.80;1.80;;;;;;;;5023654;28;8887;-73
2022/08/21 08:42:35;;;;;;;;;2.00;2.00;;;;;;;;5024559;28;9743;-73
2022/08/21 08:45:06;;;;;;;;;1.20;1.20;;;;;;;;5024080;28;8882;-73
2022/08/21 08:47:37;;;;;;;;;1.80;1.80;;;;;;;;5023788;28;8886;-73
2022/08/21 08:50:07;;;;;;;;;2.00;2.00;;;;;;;;5025838;28;9047;-74
2022/08/21 08:52:37;;;;;;;;;1.00;1.00;;;;;;;;5022673;28;8900;-73
2022/08/21 08:55:08;;;;;;;;;1.00;1.00;;;;;;;;5023716;28;9426;-72
2022/08/21 08:57:36;;;;;;;;;2.40;2.00;;;;;;;;5022006;28;8861;-73
2022/08/21 09:00:09;;;;;;;;;3.00;1.00;;;;;;;;5023128;28;8869;-73
2022/08/21 09:02:40;;;;;;;;;2.00;2.00;;;;;;;;5023157;28;8809;-73
2022/08/21 09:05:08;;;;;;;;;1.20;1.20;;;;;;;;5020580;28;8884;-76
2022/08/21 09:07:41;;;;;;;;;3.20;2.80;;;;;;;;5025801;28;8876;-72
2022/08/21 09:10:15;;;;;;;;;2.60;2.60;;;;;;;;5026127;28;8965;-73
2022/08/21 09:12:51;;;;;;;;;2.20;1.00;;;;;;;;5024822;28;8872;-73
2022/08/21 09:15:25;;;;;;;;;1.20;1.20;;;;;;;;5023514;28;8893;-74
2022/08/21 09:18:22;;;;;;;;;2.60;1.40;;;;;;;;5022932;28;8873;-72
2022/08/21 09:20:58;;;;;;;;;2.80;2.80;;;;;;;;5019542;28;9727;-73
2022/08/21 09:23:30;;;;;;;;;1.20;1.20;;;;;;;;5028157;28;8930;-73
2022/08/21 09:26:05;;;;;;;;;1.00;1.00;;;;;;;;5021368;28;8890;-78
2022/08/21 09:28:34;;;;;;;;;1.20;1.20;;;;;;;;5022493;28;8869;-75
2022/08/21 09:31:03;;;;;;;;;2.20;2.20;;;;;;;;5022806;28;8833;-75
2022/08/21 09:33:32;;;;;;;;;2.00;2.00;;;;;;;;5022872;28;8899;-76
2022/08/21 09:35:59;;;;;;;;;1.80;1.80;;;;;;;;5021220;28;8885;-76
2022/08/21 09:38:32;;;;;;;;;2.60;1.60;;;;;;;;5021898;28;8856;-73
2022/08/21 09:41:03;;;;;;;;;1.40;1.40;;;;;;;;5021196;28;8869;-74
2022/08/21 09:43:31;;;;;;;;;2.80;1.20;;;;;;;;5021669;28;9642;-75
2022/08/21 09:46:09;;;;;;;;;1.80;1.80;;;;;;;;5023247;28;9664;-71
2022/08/21 09:48:44;;;;;;;;;3.20;1.60;;;;;;;;5020473;28;8891;-74
2022/08/21 09:51:14;;;;;;;;;2.80;1.40;;;;;;;;5019954;28;8888;-74
2022/08/21 09:53:48;;;;;;;;;1.80;1.80;;;;;;;;5020744;28;8866;-73
2022/08/21 09:59:30;;;;;;;;;2.60;2.40;;;;;;;;5024099;28;8856;-70
2022/08/21 10:02:00;;;;;;;;;1.80;1.80;;;;;;;;5019513;28;8820;-72
2022/08/21 10:04:32;;;;;;;;;3.60;1.40;;;;;;;;5017903;28;8886;-74
2022/08/21 10:07:09;;;;;;;;;2.00;2.00;;;;;;;;5019512;28;8876;-73
2022/08/21 10:09:36;;;;;;;;;2.00;2.00;;;;;;;;5018000;28;8868;-74
2022/08/21 10:12:14;;;;;;;;;0.60;0.60;;;;;;;;5020075;28;8844;-74
2022/08/21 10:14:51;;;;;;;;;1.60;1.60;;;;;;;;5016267;28;8892;-76
2022/08/21 10:17:24;;;;;;;;;2.60;1.00;;;;;;;;5020614;28;8895;-75
2022/08/21 10:20:05;;;;;;;;;0.80;0.80;;;;;;;;5016161;28;8856;-75
2022/08/21 10:22:39;;;;;;;;;1.80;1.80;;;;;;;;5019509;28;8895;-76
2022/08/21 10:25:14;;;;;;;;;2.60;2.60;;;;;;;;5016369;28;9077;-74
2022/08/21 10:27:48;;;;;;;;;5.80;2.00;;;;;;;;5021724;28;8869;-76
2022/08/21 10:30:33;;;;;;;;;2.60;1.00;;;;;;;;5020052;28;9011;-78
2022/08/21 10:33:15;;;;;;;;;1.80;1.80;;;;;;;;5019622;28;8848;-77
2022/08/21 10:35:55;;;;;;;;;1.40;1.40;;;;;;;;5021444;28;8860;-79
2022/08/21 10:39:05;;;;;;;;;0.80;0.80;;;;;;;;5022124;28;8848;-77
2022/08/21 10:41:43;;;;;;;;;2.60;0.80;;;;;;;;5019278;28;8861;-77
2022/08/21 10:44:22;;;;;;;;;2.00;2.00;;;;;;;;5019722;28;8917;-76
2022/08/21 10:46:55;;;;;;;;;1.00;1.00;;;;;;;;5020331;28;8952;-76
2022/08/21 10:49:41;;;;;;;;;0.00;0.00;;;;;;;;5017755;28;9003;-76
2022/08/21 10:52:32;;;;;;;;;1.20;1.20;;;;;;;;5016285;28;8872;-74
2022/08/21 10:55:05;;;;;;;;;1.00;1.00;;;;;;;;5018105;28;8892;-79
2022/08/21 10:57:39;;;;;;;;;1.20;1.20;;;;;;;;5017925;28;8886;-78
2022/08/21 11:00:12;;;;;;;;;1.00;1.00;;;;;;;;5017595;28;8945;-77
2022/08/21 11:02:43;;;;;;;;;2.60;1.40;;;;;;;;5017654;28;8946;-77
2022/08/21 11:05:15;;;;;;;;;1.00;1.00;;;;;;;;5018146;28;8990;-77
2022/08/21 11:07:48;;;;;;;;;1.80;1.80;;;;;;;;5020056;28;8884;-77
2022/08/21 11:10:21;;;;;;;;;1.00;1.00;;;;;;;;5020447;28;8975;-79
2022/08/21 11:12:51;;;;;;;;;0.00;0.00;;;;;;;;5019598;28;8941;-80
2022/08/21 11:15:38;;;;;;;;;4.00;1.20;;;;;;;;5017294;28;8888;-79
2022/08/21 11:18:20;;;;;;;;;0.40;0.20;;;;;;;;5018150;28;8873;-78
2022/08/21 11:20:52;;;;;;;;;2.40;1.60;;;;;;;;5016978;28;9832;-75
2022/08/21 11:23:26;;;;;;;;;1.00;1.00;;;;;;;;5018054;28;8892;-79
2022/08/21 11:25:56;;;;;;;;;0.20;0.00;;;;;;;;5020926;28;8868;-75
2022/08/21 11:28:26;;;;;;;;;1.20;1.20;;;;;;;;5018630;28;8904;-78
2022/08/21 11:31:08;;;;;;;;;0.00;0.00;;;;;;;;5017283;28;8807;-77
2022/08/21 11:33:48;;;;;;;;;1.00;1.00;;;;;;;;5017822;28;9039;-74
2022/08/21 11:36:23;;;;;;;;;2.60;0.20;;;;;;;;5020243;28;8887;-76
2022/08/21 11:38:58;;;;;;;;;0.60;0.60;;;;;;;;5019288;28;8860;-74
2022/08/21 11:41:31;;;;;;;;;1.00;1.00;;;;;;;;5016946;28;8915;-80
2022/08/21 11:44:07;;;;;;;;;1.20;1.20;;;;;;;;5017583;28;8888;-73
2022/08/21 11:46:41;;;;;;;;;1.60;1.00;;;;;;;;5015065;28;8860;-76
2022/08/21 11:49:23;;;;;;;;;1.80;1.80;;;;;;;;5018504;28;8836;-74
2022/08/21 11:51:55;;;;;;;;;2.80;2.60;;;;;;;;5018761;28;8908;-77
2022/08/21 11:54:29;;;;;;;;;1.00;1.00;;;;;;;;5020380;28;8888;-73
2022/08/21 11:57:02;;;;;;;;;2.80;2.80;;;;;;;;5022455;28;8939;-78
2022/08/21 11:59:37;;;;;;;;;1.20;1.20;;;;;;;;5022570;28;8902;-76
2022/08/21 12:02:10;;;;;;;;;2.00;2.00;;;;;;;;5022999;28;8809;-80
2022/08/21 12:04:45;;;;;;;;;6.00;4.40;;;;;;;;5019659;28;8891;-74
2022/08/21 12:07:17;;;;;;;;;1.00;1.00;;;;;;;;5023878;28;8887;-75
2022/08/21 12:09:57;;;;;;;;;2.80;1.80;;;;;;;;5026017;28;8935;-75
2022/08/21 12:12:28;;;;;;;;;0.80;0.80;;;;;;;;5023492;28;9683;-71
2022/08/21 12:15:08;;;;;;;;;1.20;1.20;;;;;;;;5026458;28;8868;-81
2022/08/21 12:17:38;;;;;;;;;0.00;0.00;;;;;;;;5024591;28;8895;-76
2022/08/21 12:20:42;;;;;;;;;1.00;1.00;;;;;;;;5033140;28;9754;-79
2022/08/21 12:23:26;;;;;;;;;2.00;0.80;;;;;;;;5020745;28;9641;-81
2022/08/21 12:26:10;;;;;;;;;0.00;0.00;;;;;;;;5022019;28;9653;-74
2022/08/21 12:28:37;;;;;;;;;0.00;0.00;;;;;;;;5025975;28;9745;-76
2022/08/21 12:31:05;;;;;;;;;3.00;0.00;;;;;;;;5013057;28;8870;-78
2022/08/21 12:33:35;;;;;;;;;2.00;0.60;;;;;;;;5024305;28;8895;-79
2022/08/21 12:36:06;;;;;;;;;1.20;1.20;;;;;;;;5023134;28;8849;-76
2022/08/21 12:38:40;;;;;;;;;2.00;2.00;;;;;;;;5026561;28;8849;-75
2022/08/21 12:41:13;;;;;;;;;1.00;1.00;;;;;;;;5022751;28;8864;-73
2022/08/21 12:43:46;;;;;;;;;1.40;1.40;;;;;;;;5022351;28;9492;-77
2022/08/21 12:46:18;;;;;;;;;1.60;0.40;;;;;;;;5024255;28;8859;-74
2022/08/21 12:48:49;;;;;;;;;0.40;0.40;;;;;;;;5022794;28;8893;-79
2022/08/21 12:51:19;;;;;;;;;0.80;0.80;;;;;;;;5022888;28;8857;-76
2022/08/21 12:53:50;;;;;;;;;0.00;0.00;;;;;;;;5022967;28;8934;-72
2022/08/21 12:56:20;;;;;;;;;1.00;1.00;;;;;;;;5020451;28;8873;-72
2022/08/21 12:58:49;;;;;;;;;3.00;1.40;;;;;;;;5023285;28;8905;-72
2022/08/21 13:01:23;;;;;;;;;1.00;1.00;;;;;;;;5020653;28;8808;-72
2022/08/21 13:03:52;;;;;;;;;4.00;1.00;;;;;;;;5022905;28;8873;-72
2022/08/21 13:06:20;;;;;;;;;0.80;0.80;;;;;;;;5022119;28;8880;-72
2022/08/21 13:08:50;;;;;;;;;0.00;0.00;;;;;;;;5023645;28;8830;-72
2022/08/21 13:11:22;;;;;;;;;1.00;1.00;;;;;;;;5021447;28;8860;-75
2022/08/21 13:13:53;;;;;;;;;2.60;0.20;;;;;;;;5020686;28;8884;-74
2022/08/21 13:16:25;;;;;;;;;2.00;1.00;;;;;;;;5022616;28;8892;-76
2022/08/21 13:18:59;;;;;;;;;1.40;0.80;;;;;;;;5021599;28;8898;-77
2022/08/21 13:21:30;;;;;;;;;0.00;0.00;;;;;;;;5023383;28;8885;-74
2022/08/21 13:24:11;;;;;;;;;0.00;0.00;;;;;;;;5021970;28;8897;-74
2022/08/21 13:26:40;;;;;;;;;1.60;0.00;;;;;;;;5023487;28;8907;-74
2022/08/21 13:29:12;;;;;;;;;0.00;0.00;;;;;;;;5004933;28;8890;-70
2022/08/21 13:31:42;;;;;;;;;1.60;0.00;;;;;;;;5021309;28;9713;-73
2022/08/21 13:34:11;;;;;;;;;3.20;0.00;;;;;;;;5022315;28;8884;-73
2022/08/21 13:36:42;;;;;;;;;1.00;1.00;;;;;;;;5019445;28;8872;-76
2022/08/21 13:39:12;;;;;;;;;0.20;0.20;;;;;;;;5025325;28;8990;-76
2022/08/21 13:41:44;;;;;;;;;0.00;0.00;;;;;;;;5020644;28;8866;-76
2022/08/21 13:44:18;;;;;;;;;1.00;1.00;;;;;;;;5019075;28;8910;-79
2022/08/21 13:46:46;;;;;;;;;0.00;0.00;;;;;;;;5020892;28;8852;-74
2022/08/21 13:49:17;;;;;;;;;1.60;1.00;;;;;;;;5020775;28;8892;-75
2022/08/21 13:51:46;;;;;;;;;2.00;0.80;;;;;;;;5021134;28;8881;-72
2022/08/21 13:54:25;;;;;;;;;0.00;0.00;;;;;;;;5020225;28;8942;-75
2022/08/21 13:56:55;;;;;;;;;0.00;0.00;;;;;;;;5018386;28;8877;-74
2022/08/21 13:59:28;;;;;;;;;1.00;1.00;;;;;;;;5022063;28;8860;-75
2022/08/21 14:01:58;;;;;;;;;0.00;0.00;;;;;;;;5010454;28;8821;-72
2022/08/21 14:04:33;;;;;;;;;1.00;1.00;;;;;;;;5021347;28;8895;-74
2022/08/21 14:07:01;;;;;;;;;0.00;0.00;;;;;;;;5017463;28;9030;-75
2022/08/21 14:09:32;;;;;;;;;0.00;0.00;;;;;;;;5018047;28;8901;-73
2022/08/21 14:12:04;;;;;;;;;0.60;0.60;;;;;;;;5018163;28;9866;-76
2022/08/21 14:14:33;;;;;;;;;0.00;0.00;;;;;;;;5018516;28;8881;-74
2022/08/21 14:17:03;;;;;;;;;0.40;0.00;;;;;;;;5019118;28;8929;-73
2022/08/21 14:19:38;;;;;;;;;0.60;0.00;;;;;;;;5022911;28;9658;-73
2022/08/21 14:22:38;;;;;;;;;0.00;0.00;;;;;;;;5019770;28;8864;-74
2022/08/21 14:25:08;;;;;;;;;0.00;0.00;;;;;;;;5017233;28;8860;-76
2022/08/21 14:27:42;;;;;;;;;0.00;0.00;;;;;;;;5022056;28;8890;-80
2022/08/21 14:30:14;;;;;;;;;0.20;0.00;;;;;;;;5020300;28;8876;-78
2022/08/21 14:32:42;;;;;;;;;0.00;0.00;;;;;;;;5020932;28;8906;-72
2022/08/21 14:35:10;;;;;;;;;0.00;0.00;;;;;;;;5021413;28;9007;-75
2022/08/21 14:37:38;;;;;;;;;1.80;0.60;;;;;;;;5021381;28;8884;-71
2022/08/21 14:40:06;;;;;;;;;1.00;1.00;;;;;;;;5020771;28;11292;-71
2022/08/21 14:42:33;;;;;;;;;0.00;0.00;;;;;;;;5019058;28;8885;-78
2022/08/21 14:45:11;;;;;;;;;0.80;0.80;;;;;;;;5021677;28;8887;-77
2022/08/21 14:47:39;;;;;;;;;0.00;0.00;;;;;;;;5022014;28;8864;-80
2022/08/21 14:50:07;;;;;;;;;0.00;0.00;;;;;;;;5021125;28;8910;-72
2022/08/21 14:52:34;;;;;;;;;0.00;0.00;;;;;;;;5022085;28;8869;-81
2022/08/21 14:55:02;;;;;;;;;2.40;1.00;;;;;;;;5019378;28;8995;-76
2022/08/21 14:57:31;;;;;;;;;0.80;0.80;;;;;;;;5022118;28;8875;-72
2022/08/21 14:59:59;;;;;;;;;0.00;0.00;;;;;;;;5019938;28;8860;-76
2022/08/21 15:02:29;;;;;;;;;0.00;0.00;;;;;;;;5021467;28;8831;-77
2022/08/21 15:04:57;;;;;;;;;1.60;0.80;;;;;;;;5020202;28;8877;-75
2022/08/21 15:07:24;;;;;;;;;0.00;0.00;;;;;;;;5022040;28;8889;-73
2022/08/21 15:09:51;;;;;;;;;2.80;0.00;;;;;;;;5021325;28;8872;-75
2022/08/21 15:12:19;;;;;;;;;0.40;0.00;;;;;;;;5019078;28;8896;-74
2022/08/21 15:14:46;;;;;;;;;0.00;0.00;;;;;;;;5019701;28;8957;-76
2022/08/21 15:17:14;;;;;;;;;1.20;0.00;;;;;;;;5020488;28;8907;-74